Time;durP1;ratioP1;P1;durP2;ratioP2;P2;SDS_P1;SDS_P2;PMS_P1;PMS_P2;Temp;Humidity;BMP_temperature;BMP_pressure;BME280_temperature;BME280_humidity;BME280_pressure;Samples;Min_cycle;Max_cycle;Signal;HPM_P1;HPM_P2
2022/05/21 00:01:35;;;;;;;13.50;3.67;;;9.70;99.90;;;;;;5053156;28;20029;-72
2022/05/21 00:04:00;;;;;;;7.80;4.10;;;9.70;99.90;;;;;;5053306;28;20024;-71
2022/05/21 00:06:26;;;;;;;12.02;3.63;;;9.80;99.90;;;;;;5053458;28;20461;-72
2022/05/21 00:08:52;;;;;;;9.60;3.40;;;9.70;99.90;;;;;;5053431;28;20033;-72
2022/05/21 00:11:17;;;;;;;6.53;2.67;;;9.80;99.90;;;;;;5053239;28;20439;-72
2022/05/21 00:13:44;;;;;;;14.68;4.07;;;9.70;99.90;;;;;;5056530;28;20092;-72
2022/05/21 00:16:10;;;;;;;5.13;3.15;;;9.60;99.90;;;;;;5057455;28;20017;-72
2022/05/21 00:18:35;;;;;;;4.68;2.58;;;9.60;99.90;;;;;;5057258;28;20036;-72
2022/05/21 00:21:01;;;;;;;7.63;3.25;;;9.50;99.90;;;;;;5056524;28;20028;-72
2022/05/21 00:23:29;;;;;;;8.15;2.88;;;9.40;99.90;;;;;;5042699;28;20033;-72
2022/05/21 00:26:01;;;;;;;7.47;2.90;;;9.30;99.90;;;;;;5036767;28;20105;-72
2022/05/21 00:28:27;;;;;;;8.82;2.47;;;9.30;99.90;;;;;;5044768;28;20033;-72
2022/05/21 00:30:54;;;;;;;6.80;2.65;;;9.20;99.90;;;;;;5055057;28;20139;-72
2022/05/21 00:33:20;;;;;;;6.90;3.47;;;9.20;99.90;;;;;;5037102;28;20030;-72
2022/05/21 00:35:48;;;;;;;4.20;3.30;;;9.20;99.90;;;;;;5036439;28;20029;-72
2022/05/21 00:38:14;;;;;;;3.47;2.72;;;9.20;99.90;;;;;;5036283;28;20044;-72
2022/05/21 00:40:40;;;;;;;4.50;3.03;;;9.20;99.90;;;;;;5018478;28;20128;-72
2022/05/21 00:43:06;;;;;;;9.02;2.40;;;9.20;99.90;;;;;;5036327;28;20084;-72
2022/05/21 00:45:32;;;;;;;4.70;2.72;;;9.20;99.90;;;;;;5036322;28;20022;-72
2022/05/21 00:47:58;;;;;;;6.22;2.78;;;9.30;99.90;;;;;;5036274;28;20117;-72
2022/05/21 00:50:28;;;;;;;6.13;2.75;;;9.30;99.90;;;;;;5036499;28;20057;-72
2022/05/21 00:52:56;;;;;;;7.97;3.20;;;9.30;99.90;;;;;;5036160;28;20026;-72
2022/05/21 00:55:29;;;;;;;8.70;3.15;;;9.40;99.90;;;;;;5036448;28;20118;-72
2022/05/21 01:00:51;;;;;;;4.95;3.30;;;9.40;99.90;;;;;;5036156;28;20032;-72
2022/05/21 01:03:17;;;;;;;5.07;3.05;;;9.50;99.90;;;;;;5035954;28;20030;-72
2022/05/21 01:05:45;;;;;;;3.90;3.22;;;9.50;99.90;;;;;;5035940;28;20021;-72
2022/05/21 01:08:11;;;;;;;15.57;3.78;;;9.50;99.90;;;;;;5035648;28;20021;-72
2022/05/21 01:10:42;;;;;;;5.20;3.28;;;9.50;99.90;;;;;;5035846;28;20030;-72
2022/05/21 01:13:13;;;;;;;12.35;3.30;;;9.60;99.90;;;;;;5036328;28;20071;-72
2022/05/21 01:15:41;;;;;;;9.50;2.92;;;9.60;99.90;;;;;;5035997;28;20040;-72
2022/05/21 01:18:08;;;;;;;9.43;4.15;;;9.60;99.90;;;;;;5035821;28;20362;-72
2022/05/21 01:20:35;;;;;;;8.40;3.45;;;9.60;99.90;;;;;;5035765;28;20033;-72
2022/05/21 01:23:01;;;;;;;8.07;4.50;;;9.50;99.90;;;;;;5035327;28;20017;-72
2022/05/21 01:25:34;;;;;;;8.15;3.95;;;9.60;99.90;;;;;;5035056;28;20379;-72
2022/05/21 01:28:00;;;;;;;20.23;4.28;;;9.80;99.90;;;;;;5035775;28;20022;-72
2022/05/21 01:30:42;;;;;;;17.30;4.47;;;9.90;99.90;;;;;;5035609;28;20378;-72
2022/05/21 01:33:12;;;;;;;19.85;4.68;;;10.10;99.90;;;;;;5035319;28;20036;-72
2022/05/21 01:35:39;;;;;;;14.15;3.78;;;10.20;99.90;;;;;;5035371;28;20032;-72
2022/05/21 01:38:06;;;;;;;19.63;4.05;;;10.20;99.90;;;;;;5035097;28;20021;-72
2022/05/21 01:40:32;;;;;;;17.05;3.30;;;10.20;99.90;;;;;;5035074;28;20099;-72
2022/05/21 01:45:42;;;;;;;9.82;2.75;;;10.30;99.90;;;;;;5035262;28;20098;-71
2022/05/21 01:48:08;;;;;;;18.52;3.58;;;10.40;99.90;;;;;;5035019;28;20462;-71
2022/05/21 01:50:35;;;;;;;26.45;3.53;;;10.40;99.90;;;;;;5035125;28;20029;-71
2022/05/21 01:53:00;;;;;;;21.67;3.58;;;10.40;99.90;;;;;;5035060;28;20025;-72
2022/05/21 01:55:26;;;;;;;12.07;2.90;;;10.40;99.90;;;;;;5034873;28;20082;-72
2022/05/21 01:57:52;;;;;;;10.82;2.42;;;10.50;99.90;;;;;;5034716;28;20108;-72
2022/05/21 02:00:19;;;;;;;24.08;2.92;;;10.50;99.90;;;;;;5034707;28;20080;-72
2022/05/21 02:02:44;;;;;;;27.02;4.10;;;10.50;99.90;;;;;;5043091;28;20477;-71
2022/05/21 02:05:10;;;;;;;16.95;3.05;;;10.50;99.90;;;;;;5034987;28;20028;-71
2022/05/21 02:07:36;;;;;;;29.30;4.00;;;10.60;99.90;;;;;;5054605;28;20477;-71
2022/05/21 02:10:03;;;;;;;24.27;3.42;;;10.60;99.90;;;;;;5054544;28;20028;-71
2022/05/21 02:12:28;;;;;;;22.95;3.65;;;10.60;99.90;;;;;;5054737;28;20035;-71
2022/05/21 02:14:57;;;;;;;15.98;2.95;;;10.60;99.90;;;;;;5054644;28;20032;-71
2022/05/21 02:17:23;;;;;;;16.17;3.00;;;10.60;99.90;;;;;;5046197;28;20026;-71
2022/05/21 02:19:49;;;;;;;13.82;2.65;;;10.70;99.90;;;;;;5016601;28;20140;-71
2022/05/21 02:25:37;;;;;;;19.88;3.67;;;10.70;99.90;;;;;;5034485;28;20447;-71
2022/05/21 02:28:03;;;;;;;14.88;2.78;;;10.80;99.90;;;;;;5034122;28;20053;-71
2022/05/21 02:30:28;;;;;;;16.20;2.75;;;10.70;99.90;;;;;;5034822;28;20037;-71
2022/05/21 02:32:54;;;;;;;18.40;3.40;;;10.80;99.90;;;;;;5034292;28;20079;-71
2022/05/21 02:35:19;;;;;;;26.23;6.13;;;10.80;99.90;;;;;;5034191;28;20118;-71
2022/05/21 02:40:30;;;;;;;;;;;10.80;99.90;;;;;;5035931;28;20040;-71
2022/05/21 02:42:56;;;;;;;28.20;4.22;;;10.80;99.90;;;;;;5034391;28;19905;-71
2022/05/21 02:45:25;;;;;;;26.98;3.67;;;10.90;99.90;;;;;;5034241;28;20106;-72
2022/05/21 02:47:51;;;;;;;23.05;3.60;;;10.90;99.90;;;;;;5033906;28;20465;-71
2022/05/21 02:50:21;;;;;;;16.35;4.43;;;11.00;99.90;;;;;;5033929;28;20027;-71
2022/05/21 02:52:47;;;;;;;18.73;3.50;;;11.00;99.90;;;;;;5034142;28;20473;-71
2022/05/21 02:55:14;;;;;;;16.48;3.60;;;11.00;99.90;;;;;;5034141;28;20025;-71
2022/05/21 02:57:40;;;;;;;22.02;4.57;;;11.00;99.90;;;;;;5034079;28;20026;-71
2022/05/21 03:00:11;;;;;;;17.60;4.40;;;11.00;99.90;;;;;;5033812;28;20037;-71
2022/05/21 03:02:37;;;;;;;13.93;3.67;;;11.00;99.90;;;;;;5033840;28;20029;-71
2022/05/21 03:05:04;;;;;;;15.27;3.75;;;11.00;99.90;;;;;;5033932;28;20028;-71
2022/05/21 03:07:30;;;;;;;15.73;3.28;;;11.00;99.90;;;;;;5033632;28;20034;-71
2022/05/21 03:13:02;;;;;;;20.95;2.80;;;11.10;99.90;;;;;;4973098;28;20075;-71
2022/05/21 03:15:34;;;;;;;20.25;2.92;;;11.10;99.90;;;;;;4972979;28;20055;-71
2022/05/21 03:18:05;;;;;;;17.92;2.67;;;11.20;99.90;;;;;;5004438;28;20042;-71
2022/05/21 03:20:30;;;;;;;9.13;2.30;;;11.20;99.90;;;;;;5033565;28;20096;-71
2022/05/21 03:22:56;;;;;;;13.75;3.35;;;11.20;99.90;;;;;;5033688;28;20024;-71
2022/05/21 03:25:23;;;;;;;16.95;3.40;;;11.10;99.90;;;;;;5033841;28;20096;-71
2022/05/21 03:27:49;;;;;;;18.33;3.85;;;11.20;99.90;;;;;;5033539;28;20021;-71
2022/05/21 03:30:22;;;;;;;11.93;3.00;;;11.20;99.90;;;;;;5034067;28;20032;-71
2022/05/21 03:32:47;;;;;;;17.30;2.78;;;11.20;99.90;;;;;;5033993;28;20355;-71
2022/05/21 03:35:16;;;;;;;24.55;5.15;;;11.20;99.90;;;;;;5033556;28;20171;-71
2022/05/21 03:37:42;;;;;;;14.32;3.75;;;11.30;99.90;;;;;;5033371;28;20025;-71
2022/05/21 03:40:11;;;;;;;23.70;3.30;;;11.40;99.90;;;;;;5033449;28;20041;-71
2022/05/21 03:42:37;;;;;;;12.45;3.08;;;11.40;99.90;;;;;;5033405;28;20032;-71
2022/05/21 03:45:03;;;;;;;10.93;2.90;;;11.40;99.90;;;;;;5033518;28;20054;-71
2022/05/21 03:47:29;;;;;;;11.60;2.83;;;11.40;99.90;;;;;;5035160;28;20025;-71
2022/05/21 03:49:55;;;;;;;14.48;2.97;;;11.40;99.90;;;;;;5037222;28;20033;-71
2022/05/21 03:52:20;;;;;;;21.75;3.65;;;11.40;99.90;;;;;;5037523;28;20029;-71
2022/05/21 03:54:46;;;;;;;17.67;3.50;;;11.40;99.90;;;;;;5037445;28;20026;-71
2022/05/21 03:57:14;;;;;;;22.92;3.72;;;11.40;99.90;;;;;;5037015;28;20424;-71
2022/05/21 03:59:40;;;;;;;25.90;3.42;;;11.50;99.90;;;;;;5037282;28;20021;-71
2022/05/21 04:02:05;;;;;;;15.27;2.60;;;11.50;99.90;;;;;;5037210;28;20021;-71
2022/05/21 04:04:31;;;;;;;31.20;4.80;;;11.60;99.90;;;;;;5019634;28;20036;-71
2022/05/21 04:06:57;;;;;;;27.00;4.95;;;11.50;99.90;;;;;;5037160;28;20477;-71
2022/05/21 04:09:22;;;;;;;14.10;3.25;;;11.60;99.90;;;;;;5035531;28;20132;-71
2022/05/21 04:11:48;;;;;;;20.08;3.40;;;11.60;99.90;;;;;;5035758;28;20101;-71
2022/05/21 04:14:14;;;;;;;20.67;3.72;;;11.70;99.90;;;;;;5035501;28;20025;-71
2022/05/21 04:16:42;;;;;;;24.80;3.58;;;11.80;99.90;;;;;;5035714;28;20490;-71
2022/05/21 04:19:09;;;;;;;27.63;4.13;;;11.80;99.90;;;;;;5035285;28;20030;-71
2022/05/21 04:21:35;;;;;;;18.25;3.95;;;11.90;99.90;;;;;;5035325;28;20068;-71
2022/05/21 04:24:00;;;;;;;17.17;4.15;;;11.90;99.90;;;;;;5035760;28;20021;-71
2022/05/21 04:26:26;;;;;;;15.45;3.80;;;12.00;99.90;;;;;;5035339;28;20034;-71
2022/05/21 04:28:51;;;;;;;19.45;4.65;;;12.10;99.90;;;;;;5035282;28;20021;-71
2022/05/21 04:31:17;;;;;;;17.27;4.07;;;12.10;99.90;;;;;;5035255;28;20028;-71
2022/05/21 04:33:42;;;;;;;20.13;4.35;;;12.10;99.90;;;;;;5035271;28;20088;-71
2022/05/21 04:36:20;;;;;;;19.13;4.80;;;12.10;99.90;;;;;;5035471;28;20029;-71
2022/05/21 04:38:47;;;;;;;17.05;4.18;;;12.20;99.90;;;;;;5035083;28;20048;-71
2022/05/21 04:41:13;;;;;;;19.77;4.60;;;12.20;99.90;;;;;;5035078;28;20029;-71
2022/05/21 04:43:39;;;;;;;12.02;3.45;;;12.30;99.90;;;;;;5034993;28;20075;-71
2022/05/21 04:46:05;;;;;;;17.10;4.45;;;12.30;99.90;;;;;;5035233;28;20021;-71
2022/05/21 04:48:31;;;;;;;37.47;5.53;;;12.30;99.90;;;;;;5034949;28;20021;-71
2022/05/21 04:51:02;;;;;;;21.45;5.05;;;12.30;99.90;;;;;;5017212;28;20033;-71
2022/05/21 04:53:28;;;;;;;26.10;5.10;;;12.30;99.90;;;;;;5035118;28;20029;-71
2022/05/21 04:55:54;;;;;;;28.27;6.70;;;12.20;99.90;;;;;;5034815;28;20095;-71
2022/05/21 04:58:20;;;;;;;30.73;6.70;;;12.20;99.90;;;;;;5033593;28;20473;-71
2022/05/21 05:00:46;;;;;;;27.30;5.63;;;12.20;99.90;;;;;;5035456;28;20108;-71
2022/05/21 05:03:14;;;;;;;23.92;5.53;;;12.20;99.90;;;;;;5035779;28;20124;-71
2022/05/21 05:05:40;;;;;;;25.98;6.68;;;12.10;99.90;;;;;;5034983;28;20025;-71
2022/05/21 05:08:06;;;;;;;20.30;5.65;;;12.20;99.90;;;;;;4997805;28;1071239;-72
2022/05/21 05:10:33;;;;;;;34.50;6.55;;;12.10;99.90;;;;;;5035765;28;20045;-72
2022/05/21 05:12:59;;;;;;;31.20;7.07;;;12.20;99.90;;;;;;5035820;28;20379;-72
2022/05/21 05:15:25;;;;;;;25.52;6.28;;;12.20;99.90;;;;;;5035594;28;20132;-72
2022/05/21 05:17:56;;;;;;;35.60;7.60;;;12.20;99.90;;;;;;5035669;28;20385;-72
2022/05/21 05:20:22;;;;;;;33.13;6.25;;;12.10;99.90;;;;;;5035607;28;20036;-72
2022/05/21 05:22:47;;;;;;;34.22;5.82;;;12.20;99.90;;;;;;5035678;28;20029;-72
2022/05/21 05:25:13;;;;;;;43.83;7.43;;;12.20;99.90;;;;;;5035380;28;20026;-72
2022/05/21 05:27:39;;;;;;;32.38;6.45;;;12.30;99.90;;;;;;5035065;28;20385;-72
2022/05/21 05:30:05;;;;;;;30.05;6.05;;;12.30;99.90;;;;;;5035434;28;20121;-72
2022/05/21 05:32:30;;;;;;;39.85;6.25;;;12.30;99.90;;;;;;5035385;28;20029;-72
2022/05/21 05:34:56;;;;;;;31.55;5.78;;;12.40;99.90;;;;;;5035510;28;20103;-72
2022/05/21 05:37:21;;;;;;;38.40;6.63;;;12.40;99.90;;;;;;5035024;28;20029;-71
2022/05/21 05:39:47;;;;;;;24.75;5.82;;;12.50;99.90;;;;;;5034942;28;20034;-71
2022/05/21 05:42:13;;;;;;;42.15;6.40;;;12.60;99.90;;;;;;5035106;28;20406;-71
2022/05/21 05:44:38;;;;;;;31.48;5.63;;;12.60;99.90;;;;;;5035531;28;20018;-71
2022/05/21 05:47:04;;;;;;;31.73;5.68;;;12.70;99.90;;;;;;5035075;28;20026;-71
2022/05/21 05:49:30;;;;;;;21.17;5.25;;;12.70;99.90;;;;;;5035227;28;20474;-71
2022/05/21 05:51:55;;;;;;;29.13;5.05;;;12.80;99.90;;;;;;5034808;28;20017;-71
2022/05/21 05:54:21;;;;;;;24.05;4.75;;;12.70;99.90;;;;;;5034810;28;20367;-71
2022/05/21 05:56:46;;;;;;;32.75;5.88;;;12.80;99.90;;;;;;5034762;28;20460;-71
2022/05/21 06:04:57;;;;;;;37.72;6.15;;;12.90;99.90;;;;;;4974253;28;20038;-71
2022/05/21 06:07:23;;;;;;;27.73;5.55;;;12.90;99.90;;;;;;5021746;28;20054;-71
2022/05/21 06:09:49;;;;;;;32.55;5.78;;;12.90;99.90;;;;;;5035146;28;20029;-71
2022/05/21 06:12:15;;;;;;;30.65;5.63;;;13.00;99.90;;;;;;5034411;28;20498;-71
2022/05/21 06:14:41;;;;;;;16.77;4.78;;;13.00;99.90;;;;;;5034751;28;20089;-71
2022/05/21 06:17:09;;;;;;;28.75;5.05;;;12.90;99.90;;;;;;5034190;28;20363;-71
2022/05/21 06:19:34;;;;;;;26.48;4.93;;;12.90;99.90;;;;;;5034554;28;20057;-71
2022/05/21 06:22:02;;;;;;;32.35;6.97;;;12.90;99.90;;;;;;5034299;28;20068;-71
2022/05/21 06:24:28;;;;;;;19.13;4.82;;;12.80;99.90;;;;;;5034245;28;20108;-71
2022/05/21 06:26:54;;;;;;;33.90;4.85;;;12.80;99.90;;;;;;5034220;28;20025;-71
2022/05/21 06:29:20;;;;;;;42.60;7.05;;;12.80;99.90;;;;;;5034407;28;20091;-71
2022/05/21 06:31:45;;;;;;;29.20;6.00;;;12.90;99.90;;;;;;5034088;28;20440;-71
2022/05/21 06:34:11;;;;;;;19.40;7.35;;;12.80;99.90;;;;;;5034037;28;20034;-71
2022/05/21 06:36:37;;;;;;;21.92;5.13;;;12.90;99.90;;;;;;5033980;28;20058;-71
2022/05/21 06:39:03;;;;;;;28.75;5.95;;;12.90;99.90;;;;;;5034002;28;20034;-71
2022/05/21 06:41:31;;;;;;;20.48;6.78;;;12.90;99.90;;;;;;5034248;28;20033;-71
2022/05/21 06:43:57;;;;;;;23.00;4.82;;;13.00;99.90;;;;;;5034292;28;20025;-71
2022/05/21 06:46:23;;;;;;;22.60;6.05;;;12.90;99.90;;;;;;5034056;28;20028;-71
2022/05/21 06:48:49;;;;;;;28.75;5.82;;;13.00;99.90;;;;;;5033840;28;20026;-71
2022/05/21 06:51:14;;;;;;;22.15;6.28;;;13.10;99.90;;;;;;5033785;28;20175;-71
2022/05/21 06:53:40;;;;;;;27.67;6.22;;;13.00;99.90;;;;;;5033690;28;20064;-71
2022/05/21 06:56:12;;;;;;;24.17;6.68;;;13.00;99.90;;;;;;5033599;28;20029;-71
2022/05/21 06:58:38;;;;;;;24.17;6.50;;;13.20;99.90;;;;;;5033752;28;20041;-71
2022/05/21 07:01:04;;;;;;;23.52;6.85;;;13.20;99.90;;;;;;5033695;28;20025;-71
2022/05/21 07:03:30;;;;;;;22.30;5.80;;;13.30;99.90;;;;;;5033847;28;20382;-71
2022/05/21 07:08:40;;;;;;;33.00;5.78;;;13.30;99.90;;;;;;5033651;28;20048;-71
2022/05/21 07:11:06;;;;;;;23.50;6.72;;;13.30;99.90;;;;;;5033467;28;20022;-72
2022/05/21 07:13:32;;;;;;;26.20;7.53;;;13.20;99.90;;;;;;5033613;28;20520;-72
2022/05/21 07:15:58;;;;;;;33.28;7.03;;;13.20;99.90;;;;;;5033519;28;20033;-72
2022/05/21 07:18:26;;;;;;;34.72;7.45;;;13.10;99.90;;;;;;5033532;28;20044;-72
2022/05/21 07:20:54;;;;;;;27.85;7.93;;;13.00;99.90;;;;;;5033130;28;20025;-72
2022/05/21 07:23:20;;;;;;;25.50;7.43;;;12.90;99.90;;;;;;5037591;28;20101;-72
2022/05/21 07:25:47;;;;;;;31.30;7.95;;;12.80;99.90;;;;;;5038810;28;20028;-72
2022/05/21 07:28:13;;;;;;;37.80;9.52;;;12.90;99.90;;;;;;5037945;28;20379;-72
2022/05/21 07:30:39;;;;;;;25.52;8.52;;;12.80;99.90;;;;;;5037484;28;20025;-72
2022/05/21 07:33:09;;;;;;;40.63;10.00;;;12.80;99.90;;;;;;5037567;28;20080;-72
2022/05/21 07:35:37;;;;;;;32.58;9.85;;;12.70;99.90;;;;;;5037642;28;20036;-72
2022/05/21 07:38:04;;;;;;;46.38;10.27;;;12.70;99.90;;;;;;5037301;28;20024;-72
2022/05/21 07:40:30;;;;;;;36.17;10.23;;;12.80;99.90;;;;;;5037374;28;20025;-72
2022/05/21 07:42:55;;;;;;;37.42;10.68;;;12.90;99.90;;;;;;5037179;28;20021;-72
2022/05/21 07:45:21;;;;;;;42.15;10.48;;;13.00;99.90;;;;;;5037214;28;20030;-72
2022/05/21 07:47:49;;;;;;;38.80;12.68;;;13.20;99.90;;;;;;5037218;28;20424;-72
2022/05/21 07:50:15;;;;;;;32.35;10.02;;;13.40;99.90;;;;;;5037347;28;20029;-72
2022/05/21 07:52:41;;;;;;;34.10;10.77;;;13.50;99.90;;;;;;5036940;28;20079;-72
2022/05/21 07:55:08;;;;;;;25.85;8.70;;;13.60;99.90;;;;;;5036983;28;20033;-72
2022/05/21 07:57:33;;;;;;;37.72;9.10;;;13.70;99.90;;;;;;5036771;28;20025;-71
2022/05/21 07:59:59;;;;;;;36.78;10.40;;;13.90;99.90;;;;;;5037307;28;20048;-71
2022/05/21 08:02:24;;;;;;;22.10;8.43;;;13.90;99.90;;;;;;5037391;28;20029;-71
2022/05/21 08:04:50;;;;;;;25.58;9.07;;;14.10;99.90;;;;;;5036605;28;20028;-71
2022/05/21 08:07:16;;;;;;;19.98;5.95;;;14.40;99.90;;;;;;5036317;28;20478;-71
2022/05/21 08:09:42;;;;;;;23.17;6.63;;;14.40;99.90;;;;;;5036885;28;20441;-71
2022/05/21 08:12:08;;;;;;;24.52;5.40;;;14.30;99.90;;;;;;5037082;28;20378;-71
2022/05/21 08:14:34;;;;;;;22.85;6.28;;;14.20;99.90;;;;;;5036769;28;20018;-71
2022/05/21 08:17:00;;;;;;;20.02;5.97;;;14.20;99.90;;;;;;5036690;28;20462;-71
2022/05/21 08:19:26;;;;;;;23.25;7.00;;;14.20;99.90;;;;;;5036473;28;20116;-71
2022/05/21 08:21:51;;;;;;;36.60;7.80;;;14.20;99.90;;;;;;5036377;28;20026;-71
2022/05/21 08:27:02;;;;;;;26.73;6.60;;;14.20;99.90;;;;;;5036926;28;20044;-71
2022/05/21 08:29:33;;;;;;;20.55;5.50;;;14.20;99.90;;;;;;5036254;28;20036;-70
2022/05/21 08:32:00;;;;;;;26.67;5.75;;;14.30;99.90;;;;;;5036539;28;20405;-70
2022/05/21 08:34:27;;;;;;;25.23;5.80;;;14.60;99.90;;;;;;5035961;28;20025;-70
2022/05/21 08:36:53;;;;;;;21.10;5.85;;;14.60;99.90;;;;;;5036058;28;20482;-70
2022/05/21 08:39:19;;;;;;;19.25;5.30;;;14.60;99.90;;;;;;5036138;28;20049;-70
2022/05/21 08:42:05;;;;;;;20.27;5.72;;;14.50;99.90;;;;;;5035956;28;20065;-70
2022/05/21 08:44:52;;;;;;;24.85;5.40;;;14.70;99.90;;;;;;5036077;28;20460;-70
2022/05/21 08:47:23;;;;;;;30.95;5.25;;;14.80;99.90;;;;;;5036420;28;20014;-70
2022/05/21 08:50:08;;;;;;;22.90;5.38;;;14.80;99.90;;;;;;5035891;28;20492;-70
2022/05/21 08:52:51;;;;;;;17.95;5.80;;;15.00;99.90;;;;;;5036144;28;20122;-70
2022/05/21 08:55:20;;;;;;;23.27;4.53;;;15.20;99.90;;;;;;5035992;28;20413;-70
2022/05/21 08:57:54;;;;;;;21.75;4.20;;;15.40;99.90;;;;;;5035557;28;20021;-70
2022/05/21 09:00:25;;;;;;;21.08;4.15;;;15.10;99.90;;;;;;5035638;28;20079;-70
2022/05/21 09:02:52;;;;;;;9.15;3.42;;;14.80;99.90;;;;;;5035831;28;20026;-70
2022/05/21 09:05:20;;;;;;;16.50;3.97;;;14.80;99.90;;;;;;5035947;28;20056;-70
2022/05/21 09:08:16;;;;;;;19.88;3.97;;;15.00;99.90;;;;;;5035663;28;20440;-70
2022/05/21 09:11:06;;;;;;;15.57;4.10;;;15.00;99.90;;;;;;5035893;28;20034;-70
2022/05/21 09:13:46;;;;;;;18.05;2.80;;;15.20;99.90;;;;;;5035440;28;20470;-70
2022/05/21 09:18:58;;;;;;;16.60;3.63;;;15.50;99.90;;;;;;5035571;28;20064;-70
2022/05/21 09:21:27;;;;;;;16.30;2.30;;;15.30;99.90;;;;;;5035834;28;20045;-70
2022/05/21 09:23:57;;;;;;;12.70;2.80;;;15.10;99.90;;;;;;5035420;28;20078;-70
2022/05/21 09:26:30;;;;;;;11.75;2.42;;;15.00;99.90;;;;;;5035487;28;20051;-70
2022/05/21 09:29:20;;;;;;;15.40;2.95;;;15.00;99.90;;;;;;5035183;28;20018;-70
2022/05/21 09:31:46;;;;;;;8.73;2.50;;;14.90;99.90;;;;;;5035034;28;20036;-70
2022/05/21 09:34:19;;;;;;;19.20;3.28;;;15.00;99.90;;;;;;5035043;28;20029;-70
2022/05/21 09:36:45;;;;;;;18.15;4.40;;;14.90;99.90;;;;;;5035327;28;20033;-70
2022/05/21 09:39:27;;;;;;;24.95;5.22;;;14.70;99.90;;;;;;5034912;28;20074;-70
2022/05/21 09:42:13;;;;;;;;;;;14.60;99.90;;;;;;5035267;28;20076;-70
2022/05/21 09:47:28;;;;;;;23.92;3.95;;;14.30;99.90;;;;;;5036100;28;20076;-70
2022/05/21 09:50:10;;;;;;;22.83;3.20;;;14.30;99.90;;;;;;5035881;28;20025;-70
2022/05/21 09:52:36;;;;;;;14.32;3.10;;;14.20;99.90;;;;;;5034963;28;20026;-69
2022/05/21 09:55:04;;;;;;;15.90;3.90;;;14.10;99.90;;;;;;5034701;28;20022;-72
2022/05/21 09:57:39;;;;;;;22.73;3.33;;;13.90;99.90;;;;;;5034793;28;20022;-72
2022/05/21 10:00:08;;;;;;;17.70;3.38;;;13.70;99.90;;;;;;5034788;28;20112;-72
2022/05/21 10:02:43;;;;;;;23.88;3.78;;;13.60;99.90;;;;;;5034832;28;20088;-73
2022/05/21 10:05:13;;;;;;;18.77;3.88;;;13.60;99.90;;;;;;5036046;28;20356;-73
2022/05/21 10:13:16;;;;;;;22.10;4.47;;;13.50;99.90;;;;;;5035334;28;20040;-73
2022/05/21 10:15:48;;;;;;;27.88;4.60;;;13.60;99.90;;;;;;5034688;28;20029;-72
2022/05/21 10:18:34;;;;;;;19.25;4.72;;;13.70;99.90;;;;;;5034757;28;20033;-73
2022/05/21 10:21:21;;;;;;;20.45;2.78;;;13.90;99.90;;;;;;5034153;28;20505;-70
2022/05/21 10:23:52;;;;;;;16.00;3.55;;;14.30;99.90;;;;;;5034158;28;20025;-70
2022/05/21 10:26:30;;;;;;;21.23;4.13;;;14.60;99.90;;;;;;5034469;28;20028;-70
2022/05/21 10:29:20;;;;;;;13.88;2.60;;;14.50;99.90;;;;;;5034004;28;20047;-70
2022/05/21 10:32:09;;;;;;;21.95;3.78;;;14.60;99.90;;;;;;5034551;28;20526;-70
2022/05/21 10:35:10;;;;;;;10.40;3.65;;;14.80;99.90;;;;;;5034190;28;20083;-70
2022/05/21 10:37:53;;;;;;;10.20;2.30;;;15.10;99.90;;;;;;5034201;28;20469;-70
2022/05/21 10:40:41;;;;;;;20.83;3.28;;;15.10;99.90;;;;;;5034106;28;20018;-70
2022/05/21 10:43:12;;;;;;;22.92;3.17;;;15.20;99.90;;;;;;5033880;28;20037;-70
2022/05/21 10:46:05;;;;;;;19.90;3.47;;;14.90;99.90;;;;;;5034076;28;20076;-70
2022/05/21 10:48:52;;;;;;;21.45;3.67;;;14.80;99.90;;;;;;5002818;28;20034;-70
2022/05/21 10:51:33;;;;;;;25.15;3.90;;;14.50;99.90;;;;;;5033787;28;20064;-70
2022/05/21 10:54:02;;;;;;;23.42;4.75;;;14.60;99.90;;;;;;5033681;28;20021;-70
2022/05/21 10:56:46;;;;;;;27.92;3.75;;;14.60;99.90;;;;;;5034000;28;20100;-70
2022/05/21 10:59:34;;;;;;;22.33;3.78;;;14.50;99.90;;;;;;5033777;28;20021;-70
2022/05/21 11:02:22;;;;;;;19.15;3.38;;;14.80;99.90;;;;;;5034041;28;20040;-70
2022/05/21 11:04:51;;;;;;;21.83;3.50;;;15.20;99.90;;;;;;5033819;28;20021;-70
2022/05/21 11:07:26;;;;;;;10.98;3.78;;;15.20;99.90;;;;;;5033268;28;20108;-70
2022/05/21 11:09:54;;;;;;;13.82;1.80;;;15.40;99.90;;;;;;5033659;28;20547;-70
2022/05/21 11:12:36;;;;;;;13.98;2.90;;;15.40;99.90;;;;;;5033717;28;20063;-70
2022/05/21 11:15:08;;;;;;;20.23;2.58;;;15.10;99.90;;;;;;5033646;28;20026;-70
2022/05/21 11:17:47;;;;;;;18.13;2.65;;;14.80;99.90;;;;;;5033559;28;20021;-70
2022/05/21 11:20:21;;;;;;;15.55;2.78;;;14.90;99.90;;;;;;5033289;28;20386;-70
2022/05/21 11:23:20;;;;;;;18.92;3.25;;;15.10;99.90;;;;;;5033604;28;20382;-70
2022/05/21 11:26:13;;;;;;;19.05;2.85;;;15.40;99.90;;;;;;5017416;28;20099;-70
2022/05/21 11:28:48;;;;;;;32.38;3.78;;;15.40;99.90;;;;;;5032754;28;20034;-70
2022/05/21 11:37:20;;;;;;;20.88;3.13;;;15.80;99.90;;;;;;5033203;28;20299;-70
2022/05/21 11:39:46;;;;;;;21.60;3.27;;;16.10;99.90;;;;;;5033119;28;20390;-70
2022/05/21 11:42:17;;;;;;;17.05;3.50;;;16.00;99.90;;;;;;5033376;28;20022;-69
2022/05/21 11:45:03;;;;;;;16.58;3.08;;;15.70;99.90;;;;;;5033408;28;20017;-70
2022/05/21 11:47:53;;;;;;;21.08;3.60;;;15.50;99.90;;;;;;5033302;28;20033;-70
2022/05/21 11:50:22;;;;;;;14.77;3.70;;;15.10;99.90;;;;;;5033052;28;20449;-71
2022/05/21 11:52:54;;;;;;;18.55;3.08;;;14.80;99.90;;;;;;5015319;28;20053;-70
2022/05/21 11:55:26;;;;;;;16.10;3.13;;;14.70;99.90;;;;;;5033006;28;20105;-70
2022/05/21 11:57:58;;;;;;;12.73;3.22;;;14.70;99.90;;;;;;5032982;28;20064;-69
2022/05/21 12:00:26;;;;;;;18.73;3.08;;;15.20;99.90;;;;;;5032914;28;20108;-70
2022/05/21 12:02:54;;;;;;;20.30;2.85;;;15.40;99.90;;;;;;5032946;28;20060;-71
2022/05/21 12:05:34;;;;;;;18.00;2.97;;;15.90;99.90;;;;;;5033184;28;20355;-70
2022/05/21 12:08:22;;;;;;;18.08;2.97;;;16.80;99.90;;;;;;5034369;28;20029;-70
2022/05/21 12:11:06;;;;;;;13.80;3.05;;;17.40;99.90;;;;;;5037202;28;20057;-70
2022/05/21 12:13:34;;;;;;;19.38;2.92;;;17.50;99.90;;;;;;5036926;28;20061;-71
2022/05/21 12:16:15;;;;;;;13.27;2.88;;;17.40;99.90;;;;;;5036516;28;20025;-72
2022/05/21 12:18:50;;;;;;;15.07;2.45;;;17.50;99.90;;;;;;5036470;28;20112;-72
2022/05/21 12:21:28;;;;;;;11.55;2.10;;;17.50;99.90;;;;;;5036627;28;20021;-72
2022/05/21 12:23:53;;;;;;;9.40;2.35;;;17.80;99.90;;;;;;5036661;28;20014;-70
2022/05/21 12:26:30;;;;;;;10.95;2.47;;;17.70;99.90;;;;;;5036314;28;20032;-71
2022/05/21 12:28:55;;;;;;;12.60;2.92;;;17.60;99.90;;;;;;5036401;28;20033;-70
2022/05/21 12:31:31;;;;;;;19.33;3.95;;;17.70;99.90;;;;;;5036501;28;20355;-71
2022/05/21 12:34:15;;;;;;;20.50;3.53;;;17.00;99.90;;;;;;5036595;28;20481;-71
2022/05/21 12:37:00;;;;;;;20.02;3.35;;;17.50;99.90;;;;;;5036260;28;20466;-71
2022/05/21 12:39:32;;;;;;;10.43;2.85;;;18.00;99.90;;;;;;5036645;28;20363;-71
2022/05/21 12:42:25;;;;;;;16.60;2.83;;;17.80;99.90;;;;;;5035953;28;20036;-71
2022/05/21 12:44:52;;;;;;;15.25;2.83;;;17.10;99.90;;;;;;5010633;28;20033;-70
2022/05/21 12:47:31;;;;;;;14.90;2.40;;;16.40;99.90;;;;;;5036247;28;20462;-70
2022/05/21 12:49:59;;;;;;;20.63;4.00;;;16.60;99.90;;;;;;5036653;28;20025;-71
2022/05/21 12:52:54;;;;;;;9.40;1.90;;;16.40;99.90;;;;;;5036436;28;20025;-73
2022/05/21 12:55:33;;;;;;;13.05;2.38;;;16.10;99.90;;;;;;5036034;28;20018;-71
2022/05/21 12:58:08;;;;;;;15.93;3.08;;;15.70;99.90;;;;;;5035832;28;20053;-70
2022/05/21 13:00:35;;;;;;;16.08;3.13;;;15.60;99.90;;;;;;5036032;28;20033;-70
2022/05/21 13:03:09;;;;;;;26.45;3.33;;;15.40;99.90;;;;;;5035782;28;20060;-70
2022/05/21 13:05:36;;;;;;;;;;;15.40;99.90;;;;;;5036084;28;20108;-71
2022/05/21 13:08:05;;;;;;;31.15;4.05;;;15.60;99.90;;;;;;5035464;28;20376;-71
2022/05/21 13:10:34;;;;;;;20.30;2.72;;;15.70;99.90;;;;;;5035826;28;20030;-72
2022/05/21 13:13:06;;;;;;;26.15;3.70;;;15.70;99.90;;;;;;5035497;28;20021;-71
2022/05/21 13:15:45;;;;;;;17.38;3.53;;;15.50;99.90;;;;;;5035417;28;20064;-70
2022/05/21 13:18:42;;;;;;;20.77;3.10;;;15.40;99.90;;;;;;5035519;28;20366;-70
2022/05/21 13:21:11;;;;;;;29.67;4.80;;;15.40;99.90;;;;;;5034627;28;20525;-70
2022/05/21 13:23:49;;;;;;;24.75;3.22;;;15.20;99.90;;;;;;5035573;28;20025;-70
2022/05/21 13:26:27;;;;;;;21.55;3.28;;;15.00;99.90;;;;;;5037565;28;21042;-69
2022/05/21 13:29:25;;;;;;;13.90;3.30;;;15.20;99.90;;;;;;5052087;28;20025;-70
2022/05/21 13:31:52;;;;;;;20.67;3.40;;;15.70;99.90;;;;;;5054492;28;20025;-70
2022/05/21 13:34:21;;;;;;;17.92;3.08;;;15.70;99.90;;;;;;5037023;28;20029;-70
2022/05/21 13:37:01;;;;;;;33.85;4.82;;;15.60;99.90;;;;;;5054953;28;20057;-70
2022/05/21 13:39:29;;;;;;;15.70;3.00;;;15.30;99.90;;;;;;5055247;28;20033;-70